createdAt,value
2018-11-10T00:01:24.060Z,66.43
2018-11-10T00:03:55.300Z,66.40
2018-11-10T00:06:26.358Z,68.17
2018-11-10T00:08:58.808Z,67.50
2018-11-10T00:11:31.280Z,65.80
2018-11-10T00:14:01.920Z,71.33
2018-11-10T00:16:32.489Z,66.27
2018-11-10T00:19:02.865Z,64.63
2018-11-10T00:21:34.114Z,65.30
2018-11-10T00:24:05.870Z,67.40
2018-11-10T00:26:36.187Z,68.10
2018-11-10T00:29:07.238Z,64.37
2018-11-10T00:31:38.385Z,71.40
2018-11-10T00:34:08.897Z,68.20
2018-11-10T00:36:40.023Z,69.83
2018-11-10T00:39:11.204Z,72.87
2018-11-10T00:41:56.904Z,74.00
2018-11-10T00:44:27.812Z,63.30
2018-11-10T00:46:58.336Z,69.23
2018-11-10T00:49:28.762Z,62.27
2018-11-10T00:51:59.303Z,66.40
2018-11-10T00:54:29.933Z,71.40
2018-11-10T00:57:00.659Z,73.53
2018-11-10T00:59:31.000Z,68.60
2018-11-10T01:02:01.405Z,71.23
2018-11-10T01:04:32.564Z,67.53
2018-11-10T01:07:03.281Z,72.47
2018-11-10T01:09:33.822Z,67.07
2018-11-10T01:12:05.469Z,68.87
2018-11-10T01:14:36.298Z,65.30
2018-11-10T01:17:07.248Z,66.70
2018-11-10T01:19:37.887Z,64.90
2018-11-10T01:22:08.415Z,64.40
2018-11-10T01:24:38.939Z,61.97
2018-11-10T01:27:08.841Z,71.67
2018-11-10T01:29:39.366Z,69.27
2018-11-10T01:32:09.795Z,74.13
2018-11-10T01:34:40.320Z,78.47
2018-11-10T01:37:11.196Z,75.17
2018-11-10T01:39:41.905Z,75.83
2018-11-10T01:42:13.041Z,70.20
2018-11-10T01:44:43.360Z,71.83
2018-11-10T01:47:13.802Z,72.60
2018-11-10T01:49:43.910Z,76.73
2018-11-10T01:52:14.008Z,74.63
2018-11-10T01:54:43.838Z,72.03
2018-11-10T01:57:13.616Z,71.83
2018-11-10T01:59:43.765Z,78.93
2018-11-10T02:02:13.790Z,70.70
2018-11-10T02:04:44.942Z,67.33
2018-11-10T02:07:15.370Z,67.37
2018-11-10T02:09:45.783Z,66.40
2018-11-10T02:12:16.204Z,69.53
2018-11-10T02:14:46.232Z,69.37
2018-11-10T02:17:16.752Z,66.27
2018-11-10T02:19:47.405Z,64.93
2018-11-10T02:22:17.928Z,68.40
2018-11-10T02:24:48.441Z,68.33
2018-11-10T02:27:23.271Z,68.87
2018-11-10T02:29:55.429Z,69.77
2018-11-10T02:32:26.020Z,71.73
2018-11-10T02:34:56.796Z,76.33
2018-11-10T02:37:27.324Z,67.67
2018-11-10T02:39:57.555Z,74.77
2018-11-10T02:42:27.884Z,75.20
2018-11-10T02:44:57.896Z,69.60
2018-11-10T02:47:27.913Z,69.37
2018-11-10T02:49:57.710Z,70.00
2018-11-10T02:52:27.528Z,66.37
2018-11-10T02:54:57.851Z,71.23
2018-11-10T02:57:27.965Z,71.50
2018-11-10T02:59:58.089Z,71.13
2018-11-10T03:02:28.305Z,73.13
2018-11-10T03:04:58.233Z,69.43
2018-11-10T03:07:28.265Z,69.83
2018-11-10T03:09:58.357Z,64.83
2018-11-10T03:12:29.091Z,65.87
2018-11-10T03:14:59.721Z,59.27
2018-11-10T03:17:30.758Z,65.33
2018-11-10T03:20:00.780Z,63.03
2018-11-10T03:22:31.238Z,62.70
2018-11-10T03:25:02.154Z,65.83
2018-11-10T03:27:32.789Z,67.00
2018-11-10T03:30:02.994Z,63.77
2018-11-10T03:32:33.321Z,68.87
2018-11-10T03:35:03.642Z,66.50
2018-11-10T03:37:33.860Z,65.93
2018-11-10T03:40:04.394Z,65.27
2018-11-10T03:42:34.820Z,66.23
2018-11-10T03:45:07.306Z,67.77
2018-11-10T03:47:38.437Z,65.07
2018-11-10T03:50:11.023Z,68.50
2018-11-10T03:52:42.045Z,63.33
2018-11-10T03:55:12.796Z,61.27
2018-11-10T03:57:44.016Z,66.77
2018-11-10T04:00:15.787Z,61.73
2018-11-10T04:02:54.023Z,60.90
2018-11-10T04:05:25.363Z,57.90
2018-11-10T04:07:56.916Z,60.20
2018-11-10T04:10:27.320Z,62.47
2018-11-10T04:12:58.259Z,60.13
2018-11-10T04:15:28.799Z,59.07
2018-11-10T04:17:59.321Z,58.57
2018-11-10T04:20:30.050Z,60.90
2018-11-10T04:23:00.890Z,53.43
2018-11-10T04:25:31.948Z,54.90
2018-11-10T04:28:02.456Z,55.27
2018-11-10T04:30:32.789Z,54.50
2018-11-10T04:33:03.106Z,58.53
2018-11-10T04:35:33.436Z,56.60
2018-11-10T04:38:03.242Z,61.30
2018-11-10T04:40:33.358Z,55.27
2018-11-10T04:43:03.680Z,60.23
2018-11-10T04:45:33.809Z,51.10
2018-11-10T04:48:04.032Z,53.00
2018-11-10T04:50:35.533Z,52.77
2018-11-10T04:53:05.793Z,50.20
2018-11-10T04:55:36.225Z,53.83
2018-11-10T04:58:12.017Z,54.33
2018-11-10T05:00:43.423Z,54.70
2018-11-10T05:03:15.084Z,49.90
2018-11-10T05:05:46.733Z,53.20
2018-11-10T05:08:21.881Z,55.73
2018-11-10T05:10:58.008Z,54.87
2018-11-10T05:13:34.504Z,54.50
2018-11-10T05:16:12.304Z,61.40
2018-11-10T05:18:43.851Z,54.40
2018-11-10T05:21:14.794Z,52.93
2018-11-10T05:23:46.854Z,55.63
2018-11-10T05:26:17.788Z,55.63
2018-11-10T05:28:48.838Z,57.80
2018-11-10T05:31:20.548Z,56.90
2018-11-10T05:33:51.318Z,61.07
2018-11-10T05:36:22.772Z,52.97
2018-11-10T05:38:57.085Z,56.37
2018-11-10T05:41:28.334Z,57.67
2018-11-10T05:43:59.886Z,50.33
2018-11-10T05:46:36.361Z,53.77
2018-11-10T05:49:08.030Z,50.33
2018-11-10T05:51:39.460Z,60.40
2018-11-10T05:54:09.803Z,53.13
2018-11-10T05:56:41.159Z,51.93
2018-11-10T05:59:18.216Z,54.30
2018-11-10T06:01:59.605Z,58.20
2018-11-10T06:04:31.510Z,53.13
2018-11-10T06:07:22.378Z,54.07
2018-11-10T06:10:08.734Z,50.60
2018-11-10T06:12:39.401Z,49.30
2018-11-10T06:15:12.015Z,54.23
2018-11-10T06:17:43.946Z,53.07
2018-11-10T06:20:15.790Z,51.87
2018-11-10T06:22:47.456Z,54.53
2018-11-10T06:25:21.038Z,49.97
2018-11-10T06:27:52.902Z,54.97
2018-11-10T06:30:27.018Z,52.90
2018-11-10T06:33:00.412Z,53.87
2018-11-10T06:35:33.084Z,52.70
2018-11-10T06:38:04.360Z,48.73
2018-11-10T06:40:34.861Z,50.07
2018-11-10T06:43:05.905Z,47.50
2018-11-10T06:45:39.404Z,54.07
2018-11-10T06:48:10.776Z,52.30
2018-11-10T06:50:47.956Z,51.20
2018-11-10T06:53:17.987Z,50.27
2018-11-10T06:55:50.047Z,50.53
2018-11-10T06:58:21.286Z,57.80
2018-11-10T07:00:51.313Z,53.67
2018-11-10T07:03:22.352Z,58.80
2018-11-10T07:05:52.550Z,59.90
2018-11-10T07:08:26.037Z,61.77
2018-11-10T07:10:56.361Z,65.47
2018-11-10T07:13:26.406Z,58.03
2018-11-10T07:15:56.920Z,59.13
2018-11-10T07:18:28.998Z,55.20
2018-11-10T07:20:59.399Z,54.83
2018-11-10T07:23:29.836Z,54.27
2018-11-10T07:26:04.160Z,56.43
2018-11-10T07:28:35.386Z,55.20
2018-11-10T07:31:07.776Z,51.10
2018-11-10T07:33:38.202Z,52.57
2018-11-10T07:36:08.310Z,54.53
2018-11-10T07:38:43.438Z,51.07
2018-11-10T07:41:17.253Z,53.10
2018-11-10T07:43:47.875Z,52.00
2018-11-10T07:46:18.404Z,49.70
2018-11-10T07:48:49.345Z,49.73
2018-11-10T07:51:20.426Z,47.27
2018-11-10T07:53:52.453Z,53.07
2018-11-10T07:56:23.793Z,51.80
2018-11-10T07:58:55.345Z,51.33
2018-11-10T08:01:27.006Z,53.30
2018-11-10T08:03:57.641Z,52.80
2018-11-10T08:06:28.791Z,53.83
2018-11-10T08:08:59.310Z,53.00
2018-11-10T08:11:31.893Z,51.77
2018-11-10T08:14:03.641Z,52.97
2018-11-10T08:16:34.784Z,52.30
2018-11-10T08:19:05.411Z,53.90
2018-11-10T08:21:36.451Z,52.73
2018-11-10T08:24:07.389Z,53.50
2018-11-10T08:26:38.336Z,51.03
2018-11-10T08:29:08.959Z,53.43
2018-11-10T08:31:39.799Z,49.47
2018-11-10T08:34:10.737Z,50.67
2018-11-10T08:36:41.876Z,49.30
2018-11-10T08:39:15.146Z,48.87
2018-11-10T08:41:45.908Z,51.13
2018-11-10T08:44:17.456Z,49.70
2018-11-10T08:46:48.426Z,50.40
2018-11-10T08:49:20.528Z,49.40
2018-11-10T08:51:50.882Z,51.43
2018-11-10T08:54:21.205Z,52.17
2018-11-10T08:56:51.118Z,52.60
2018-11-10T08:59:21.885Z,50.43
2018-11-10T09:01:51.769Z,48.10
2018-11-10T09:04:22.405Z,51.03
2018-11-10T09:06:52.929Z,49.27
2018-11-10T09:09:23.049Z,49.27
2018-11-10T09:11:53.171Z,46.27
2018-11-10T09:14:23.295Z,49.60
2018-11-10T09:16:53.936Z,51.23
2018-11-10T09:19:24.241Z,51.13
2018-11-10T09:21:54.461Z,53.83
2018-11-10T09:24:24.786Z,47.73
2018-11-10T09:26:55.418Z,45.03
2018-11-10T09:29:26.871Z,44.83
2018-11-10T09:31:57.495Z,46.90
2018-11-10T09:34:28.434Z,44.43
2018-11-10T09:37:01.636Z,45.07
2018-11-10T09:39:35.006Z,44.00
2018-11-10T09:42:06.249Z,37.60
2018-11-10T09:44:36.918Z,39.77
2018-11-10T09:47:08.259Z,42.33
2018-11-10T09:49:38.801Z,41.57
2018-11-10T09:52:08.790Z,41.97
2018-11-10T09:54:38.395Z,42.23
2018-11-10T09:57:08.536Z,42.43
2018-11-10T09:59:38.756Z,37.80
2018-11-10T10:02:09.668Z,39.10
2018-11-10T10:04:39.842Z,37.17
2018-11-10T10:07:10.005Z,37.33
2018-11-10T10:09:40.976Z,70.27
2018-11-10T10:12:10.986Z,110.00
2018-11-10T10:14:44.176Z,50.47
2018-11-10T10:17:15.836Z,49.23
2018-11-10T10:19:48.044Z,52.53
2018-11-10T10:22:17.920Z,57.63
2018-11-10T10:24:47.931Z,68.67
2018-11-10T10:27:18.036Z,43.30
2018-11-10T10:29:48.565Z,45.00
2018-11-10T10:32:19.607Z,42.73
2018-11-10T10:34:53.050Z,42.50
2018-11-10T10:37:23.640Z,35.90
2018-11-10T10:39:53.540Z,35.43
2018-11-10T10:42:23.999Z,35.17
2018-11-10T10:44:54.014Z,33.87
2018-11-10T10:47:23.894Z,34.43
2018-11-10T10:49:53.813Z,34.07
2018-11-10T10:52:24.018Z,33.30
2018-11-10T10:54:53.976Z,35.20
2018-11-10T10:57:24.596Z,34.30
2018-11-10T10:59:55.236Z,32.60
2018-11-10T11:02:29.961Z,32.57
2018-11-10T11:05:10.096Z,32.37
2018-11-10T11:07:40.827Z,32.70
2018-11-10T11:10:12.396Z,32.57
2018-11-10T11:12:48.857Z,31.57
2018-11-10T11:15:26.238Z,30.63
2018-11-10T11:17:57.076Z,32.37
2018-11-10T11:20:30.698Z,31.33
2018-11-10T11:23:02.037Z,31.67
2018-11-10T11:25:32.356Z,34.40
2018-11-10T11:28:03.916Z,31.50
2018-11-10T11:30:34.637Z,33.67
2018-11-10T11:33:05.675Z,31.63
2018-11-10T11:35:35.377Z,31.43
2018-11-10T11:38:08.366Z,28.83
2018-11-10T11:40:41.576Z,31.67
2018-11-10T11:43:17.508Z,31.70
2018-11-10T11:45:56.856Z,29.30
2018-11-10T11:48:28.416Z,32.83
2018-11-10T11:51:05.276Z,31.57
2018-11-10T11:53:41.236Z,34.40
2018-11-10T11:56:17.906Z,34.03
2018-11-10T11:58:47.916Z,29.83
2018-11-10T12:01:38.827Z,28.80
2018-11-10T12:04:19.121Z,29.07
2018-11-10T12:06:56.477Z,38.60
2018-11-10T12:09:28.338Z,37.70
2018-11-10T12:11:58.658Z,26.30
2018-11-10T12:14:28.892Z,30.63
2018-11-10T12:16:58.835Z,28.73
2018-11-10T12:22:54.450Z,25.53
2018-11-10T12:25:24.751Z,29.30
2018-11-10T12:27:54.864Z,29.43
2018-11-10T12:35:50.825Z,27.23
2018-11-10T12:38:23.206Z,25.27
2018-11-10T12:40:55.804Z,27.53
2018-11-10T12:43:26.618Z,27.90
2018-11-10T12:45:56.827Z,25.90
2018-11-10T12:48:28.842Z,27.10
2018-11-10T12:50:59.859Z,28.13
2018-11-10T12:53:30.376Z,26.10
2018-11-10T12:56:00.376Z,25.57
2018-11-10T12:58:32.886Z,25.47
2018-11-10T13:01:05.224Z,26.67
2018-11-10T13:03:37.002Z,28.80
2018-11-10T13:06:10.065Z,30.10
2018-11-10T13:08:40.204Z,26.13
2018-11-10T13:11:10.103Z,26.30
2018-11-10T13:13:43.908Z,26.23
2018-11-10T13:16:17.313Z,26.03
2018-11-10T13:18:47.524Z,27.23
2018-11-10T13:21:17.561Z,24.00
2018-11-10T13:23:49.511Z,25.63
2018-11-10T13:26:19.925Z,24.73
2018-11-10T13:28:51.496Z,99.93
2018-11-10T13:31:22.630Z,92.10
2018-11-10T13:33:55.017Z,43.63
2018-11-10T13:39:57.903Z,34.73
2018-11-10T13:42:29.384Z,35.30
2018-11-10T13:44:59.884Z,43.03
2018-11-10T13:47:30.417Z,38.53
2018-11-10T13:50:00.938Z,45.83
2018-11-10T13:52:31.167Z,43.83
2018-11-10T13:55:00.794Z,127.90
2018-11-10T13:57:31.215Z,119.77
2018-11-10T14:00:03.979Z,52.57
2018-11-10T14:02:34.226Z,38.80
2018-11-10T14:05:04.108Z,34.60
2018-11-10T14:07:34.330Z,36.20
2018-11-10T14:10:04.578Z,35.23
2018-11-10T14:12:34.909Z,36.37
2018-11-10T14:15:05.207Z,35.33
2018-11-10T14:17:35.623Z,39.27
2018-11-10T14:20:07.287Z,56.80
2018-11-10T14:22:38.016Z,115.30
2018-11-10T14:25:10.896Z,212.43
2018-11-10T14:27:42.037Z,147.20
2018-11-10T14:30:13.911Z,61.60
2018-11-10T14:32:44.839Z,41.13
2018-11-10T14:35:15.045Z,35.57
2018-11-10T14:37:45.273Z,34.60
2018-11-10T14:40:16.725Z,33.53
2018-11-10T14:42:47.476Z,33.27
2018-11-10T14:45:18.812Z,37.67
2018-11-10T14:47:50.772Z,39.67
2018-11-10T14:50:20.889Z,39.27
2018-11-10T14:52:50.638Z,34.23
2018-11-10T14:55:21.437Z,34.40
2018-11-10T14:57:52.163Z,42.57
2018-11-10T15:00:26.180Z,38.50
2018-11-10T15:02:55.887Z,33.87
2018-11-10T15:05:26.331Z,32.30
2018-11-10T15:07:56.556Z,32.60
2018-11-10T15:10:26.776Z,31.13
2018-11-10T15:12:57.389Z,37.90
2018-11-10T15:15:27.720Z,53.17
2018-11-10T15:17:58.778Z,54.70
2018-11-10T15:20:29.590Z,43.53
2018-11-10T15:22:59.810Z,45.40
2018-11-10T15:25:29.930Z,70.37
2018-11-10T15:28:00.010Z,45.57
2018-11-10T15:30:30.370Z,39.30
2018-11-10T15:33:01.101Z,41.23
2018-11-10T15:35:32.445Z,45.40
2018-11-10T15:38:03.185Z,43.53
2018-11-10T15:40:36.480Z,49.53
2018-11-10T15:43:09.388Z,58.83
2018-11-10T15:45:41.750Z,51.10
2018-11-10T15:48:12.913Z,37.53
2018-11-10T15:50:49.987Z,36.47
2018-11-10T15:53:20.924Z,50.57
2018-11-10T15:55:51.235Z,47.57
2018-11-10T15:58:21.653Z,39.33
2018-11-10T16:00:51.876Z,41.73
2018-11-10T16:03:23.436Z,36.47
2018-11-10T16:05:55.012Z,45.13
2018-11-10T16:08:25.741Z,40.77
2018-11-10T16:10:56.971Z,42.43
2018-11-10T16:13:26.754Z,45.03
2018-11-10T16:15:57.092Z,39.23
2018-11-10T16:18:27.835Z,37.40
2018-11-10T16:20:58.226Z,35.10
2018-11-10T16:23:28.975Z,39.67
2018-11-10T16:25:58.907Z,39.83
2018-11-10T16:28:29.684Z,43.57
2018-11-10T16:30:59.964Z,52.87
2018-11-10T16:33:30.044Z,47.60
2018-11-10T16:36:00.395Z,45.87
2018-11-10T16:38:35.334Z,48.63
2018-11-10T16:41:06.484Z,49.77
2018-11-10T16:43:38.336Z,48.90
2018-11-10T16:46:09.995Z,52.30
2018-11-10T16:48:44.815Z,45.27
2018-11-10T16:51:20.286Z,46.37
2018-11-10T16:53:51.628Z,43.53
2018-11-10T16:56:24.892Z,42.63
2018-11-10T16:58:55.552Z,47.27
2018-11-10T17:01:26.284Z,50.10
2018-11-10T17:03:56.893Z,51.00
2018-11-10T17:06:26.852Z,51.70
2018-11-10T17:09:07.412Z,56.60
2018-11-10T17:11:38.325Z,54.27
2018-11-10T17:14:10.004Z,53.37
2018-11-10T17:16:48.076Z,53.90
2018-11-10T17:19:19.942Z,52.43
2018-11-10T17:21:52.032Z,49.60
2018-11-10T17:24:22.420Z,55.03
2018-11-10T17:26:53.884Z,49.70
2018-11-10T17:29:27.580Z,52.93
2018-11-10T17:31:58.812Z,55.23
2018-11-10T17:34:30.372Z,55.73
2018-11-10T17:37:00.796Z,55.37
2018-11-10T17:39:31.564Z,51.10
2018-11-10T17:42:03.474Z,59.07
2018-11-10T17:44:33.844Z,60.03
2018-11-10T17:47:06.795Z,67.53
2018-11-10T17:49:38.252Z,63.17
2018-11-10T17:52:09.647Z,66.87
2018-11-10T17:54:40.590Z,66.80
2018-11-10T17:57:10.764Z,62.90
2018-11-10T17:59:41.293Z,64.33
2018-11-10T18:02:11.905Z,61.33
2018-11-10T18:04:42.341Z,66.37
2018-11-10T18:07:13.699Z,73.50
2018-11-10T18:09:50.260Z,93.50
2018-11-10T18:12:21.924Z,89.80
2018-11-10T18:14:53.973Z,99.10
2018-11-10T18:17:27.788Z,94.20
2018-11-10T18:20:12.492Z,102.47
2018-11-10T18:22:51.596Z,80.87
2018-11-10T18:25:24.068Z,65.63
2018-11-10T18:27:54.876Z,66.30
2018-11-10T18:30:25.444Z,65.63
2018-11-10T18:32:56.356Z,69.50
2018-11-10T18:35:26.778Z,66.27
2018-11-10T18:37:57.452Z,65.80
2018-11-10T18:40:28.142Z,69.63
2018-11-10T18:42:58.572Z,60.10
2018-11-10T18:45:31.573Z,61.07
2018-11-10T18:48:07.678Z,60.07
2018-11-10T18:50:38.652Z,64.67
2018-11-10T18:53:10.444Z,58.37
2018-11-10T18:55:41.564Z,67.47
2018-11-10T18:58:12.978Z,78.70
2018-11-10T19:00:46.624Z,87.70
2018-11-10T19:03:18.704Z,98.43
2018-11-10T19:05:49.402Z,89.20
2018-11-10T19:08:20.846Z,97.43
2018-11-10T19:10:54.557Z,91.17
2018-11-10T19:13:26.425Z,102.80
2018-11-10T19:15:57.785Z,103.40
2018-11-10T19:18:30.024Z,117.40
2018-11-10T19:21:00.679Z,149.83
2018-11-10T19:23:30.784Z,135.43
2018-11-10T19:26:01.945Z,139.40
2018-11-10T19:28:32.569Z,133.13
2018-11-10T19:31:04.752Z,182.20
2018-11-10T19:33:36.897Z,239.27
2018-11-10T19:36:07.336Z,187.90
2018-11-10T19:38:38.154Z,178.30
2018-11-10T19:41:08.574Z,162.07
2018-11-10T19:43:38.812Z,174.50
2018-11-10T19:46:09.552Z,172.87
2018-11-10T19:48:40.672Z,173.93
2018-11-10T19:51:15.171Z,126.43
2018-11-10T19:53:46.859Z,160.33
2018-11-10T19:56:18.024Z,139.93
2018-11-10T19:58:49.344Z,137.50
2018-11-10T20:01:20.281Z,126.40
2018-11-10T20:03:51.120Z,96.17
2018-11-10T20:06:21.234Z,101.00
2018-11-10T20:08:51.784Z,106.50
2018-11-10T20:11:22.184Z,109.23
2018-11-10T20:13:53.098Z,99.13
2018-11-10T20:16:23.557Z,95.90
2018-11-10T20:18:56.329Z,93.50
2018-11-10T20:21:28.005Z,93.53
2018-11-10T20:23:59.240Z,89.73
2018-11-10T20:26:30.596Z,93.80
2018-11-10T20:29:02.009Z,84.43
2018-11-10T20:31:32.562Z,92.77
2018-11-10T20:34:03.801Z,85.23
2018-11-10T20:36:34.664Z,82.37
2018-11-10T20:39:06.054Z,87.77
2018-11-10T20:41:38.177Z,83.03
2018-11-10T20:44:11.672Z,82.23
2018-11-10T20:46:45.875Z,78.63
2018-11-10T20:49:17.425Z,76.47
2018-11-10T20:51:48.730Z,74.20
2018-11-10T20:54:21.033Z,69.37
2018-11-10T20:56:52.521Z,69.80
2018-11-10T20:59:25.041Z,66.50
2018-11-10T21:01:55.901Z,71.27
2018-11-10T21:04:27.665Z,77.10
2018-11-10T21:06:58.192Z,81.63
2018-11-10T21:09:29.536Z,82.40
2018-11-10T21:12:01.809Z,80.50
2018-11-10T21:14:33.992Z,76.30
2018-11-10T21:17:05.624Z,82.70
2018-11-10T21:19:38.345Z,76.97
2018-11-10T21:22:13.344Z,76.50
2018-11-10T21:24:44.396Z,70.10
2018-11-10T21:27:14.895Z,76.23
2018-11-10T21:29:46.711Z,77.27
2018-11-10T21:32:17.404Z,73.87
2018-11-10T21:34:47.863Z,83.37
2018-11-10T21:37:18.552Z,87.80
2018-11-10T21:39:48.887Z,82.47
2018-11-10T21:42:18.892Z,80.27
2018-11-10T21:44:49.844Z,78.43
2018-11-10T21:47:20.972Z,78.90
2018-11-10T21:49:51.913Z,75.10
2018-11-10T21:52:23.026Z,73.33
2018-11-10T21:54:53.787Z,71.50
2018-11-10T21:57:24.834Z,68.57
2018-11-10T21:59:54.946Z,68.00
2018-11-10T22:02:25.444Z,67.80
2018-11-10T22:04:56.726Z,73.37
2018-11-10T22:07:27.354Z,68.87
2018-11-10T22:09:58.104Z,71.60
2018-11-10T22:12:28.922Z,70.80
2018-11-10T22:14:59.875Z,67.60
2018-11-10T22:17:31.414Z,66.93
2018-11-10T22:20:01.848Z,69.67
2018-11-10T22:22:33.063Z,67.27
2018-11-10T22:25:03.309Z,67.13
2018-11-10T22:27:34.154Z,67.00
2018-11-10T22:30:05.286Z,64.83
2018-11-10T22:32:35.824Z,59.37
2018-11-10T22:35:06.954Z,65.80
2018-11-10T22:37:36.875Z,69.97
2018-11-10T22:40:07.910Z,65.57
2018-11-10T22:42:39.270Z,66.80
2018-11-10T22:45:10.814Z,70.93
2018-11-10T22:47:42.014Z,71.67
2018-11-10T22:50:16.786Z,72.60
2018-11-10T22:52:46.917Z,73.60
2018-11-10T22:55:16.922Z,74.40
2018-11-10T22:57:47.955Z,73.37
2018-11-10T23:00:22.886Z,74.17
2018-11-10T23:02:55.575Z,74.23
2018-11-10T23:05:25.797Z,76.17
2018-11-10T23:07:55.706Z,79.00
2018-11-10T23:10:26.042Z,77.20
2018-11-10T23:12:56.359Z,81.23
2018-11-10T23:15:26.821Z,81.53
2018-11-10T23:17:57.107Z,81.23
2018-11-10T23:20:27.951Z,77.90
2018-11-10T23:22:58.423Z,81.37
2018-11-10T23:25:29.418Z,77.77
2018-11-10T23:28:00.850Z,72.37
2018-11-10T23:30:31.386Z,77.63
2018-11-10T23:33:02.014Z,75.90
2018-11-10T23:35:33.362Z,76.67
2018-11-10T23:38:03.902Z,75.67
2018-11-10T23:40:37.801Z,78.33
2018-11-10T23:43:08.326Z,77.50
2018-11-10T23:45:38.234Z,75.90
2018-11-10T23:48:08.454Z,75.17
2018-11-10T23:50:38.582Z,76.33
2018-11-10T23:53:08.801Z,72.83
2018-11-10T23:55:39.014Z,69.60
2018-11-10T23:58:08.935Z,73.07
